Time;durP1;ratioP1;P1;durP2;ratioP2;P2;SDS_P1;SDS_P2;PMS_P1;PMS_P2;Temp;Humidity;BMP_temperature;BMP_pressure;BME280_temperature;BME280_humidity;BME280_pressure;Samples;Min_cycle;Max_cycle;Signal;HPM_P1;HPM_P2
2022/10/12 00:02:22;;;;;;;16.87;4.70;;;5.30;12.40;;;;;;5023838;28;20203;-62
2022/10/12 00:04:49;;;;;;;10.43;4.77;;;5.20;9.50;;;;;;5054743;28;20192;-62
2022/10/12 00:07:16;;;;;;;7.43;4.47;;;5.20;1.00;;;;;;5024096;28;20210;-62
2022/10/12 00:09:43;;;;;;;11.67;5.23;;;5.20;1.00;;;;;;5015238;28;20223;-63
2022/10/12 00:12:10;;;;;;;10.07;4.93;;;5.10;1.00;;;;;;5024056;28;20228;-63
2022/10/12 00:14:37;;;;;;;8.20;4.93;;;5.10;1.00;;;;;;5020679;28;20207;-63
2022/10/12 00:17:04;;;;;;;8.63;5.00;;;5.10;1.00;;;;;;5022587;28;20203;-63
2022/10/12 00:19:31;;;;;;;12.33;5.97;;;5.10;1.00;;;;;;5038473;28;20218;-63
2022/10/12 00:21:58;;;;;;;10.37;7.20;;;5.10;1.00;;;;;;5030587;28;20706;-63
2022/10/12 00:24:25;;;;;;;9.37;6.50;;;5.10;1.00;;;;;;5042861;28;20577;-63
2022/10/12 00:26:52;;;;;;;10.93;5.73;;;5.10;1.00;;;;;;5039355;28;20675;-64
2022/10/12 00:29:19;;;;;;;11.60;5.77;;;5.10;1.00;;;;;;5022015;28;20196;-65
2022/10/12 00:31:46;;;;;;;8.73;4.80;;;5.10;1.00;;;;;;5041083;28;20716;-63
2022/10/12 00:34:13;;;;;;;9.80;4.87;;;5.10;1.00;;;;;;5040948;28;20221;-64
2022/10/12 00:36:40;;;;;;;8.23;4.47;;;5.00;1.00;;;;;;5036399;28;20742;-64
2022/10/12 00:39:09;;;;;;;9.00;4.77;;;5.00;1.00;;;;;;5038021;28;20223;-64
2022/10/12 00:41:42;;;;;;;9.57;4.77;;;5.00;1.00;;;;;;5038759;28;20215;-63
2022/10/12 00:44:46;;;;;;;10.20;4.80;;;5.00;1.00;;;;;;5022069;28;20212;-63
2022/10/12 00:47:26;;;;;;;15.37;4.97;;;5.00;1.00;;;;;;4959553;28;20194;-64
2022/10/12 00:50:14;;;;;;;8.67;4.67;;;4.90;1.00;;;;;;5000561;28;20246;-64
2022/10/12 00:52:51;;;;;;;12.97;4.93;;;4.90;1.00;;;;;;5027593;28;20204;-64
2022/10/12 00:55:21;;;;;;;11.03;4.73;;;4.90;30.90;;;;;;5037598;28;20195;-64
2022/10/12 00:57:50;;;;;;;10.40;4.53;;;4.80;99.90;;;;;;5037953;28;20192;-64
2022/10/12 01:00:19;;;;;;;11.33;5.07;;;4.80;99.90;;;;;;5036942;28;20195;-64
2022/10/12 01:02:48;;;;;;;10.43;4.90;;;4.80;99.90;;;;;;5054535;28;20188;-64
2022/10/12 01:05:17;;;;;;;13.63;4.77;;;4.80;99.90;;;;;;5019835;28;20206;-64
2022/10/12 01:07:44;;;;;;;12.67;5.00;;;4.80;99.90;;;;;;5036803;28;20209;-65
2022/10/12 01:10:12;;;;;;;11.10;5.17;;;4.60;99.90;;;;;;5037956;28;20480;-64
2022/10/12 01:12:42;;;;;;;7.50;4.77;;;4.50;99.90;;;;;;5026942;28;20315;-64
2022/10/12 01:15:10;;;;;;;10.73;5.50;;;4.40;1.00;;;;;;5052409;28;20211;-64
2022/10/12 01:17:40;;;;;;;9.10;5.03;;;4.30;1.00;;;;;;5020347;28;20232;-64
2022/10/12 01:20:19;;;;;;;12.70;4.53;;;4.20;37.00;;;;;;5037675;28;20200;-64
2022/10/12 01:23:17;;;;;;;12.73;5.00;;;4.30;7.70;;;;;;5019733;28;20639;-66
2022/10/12 01:26:03;;;;;;;12.13;5.37;;;4.30;1.00;;;;;;5053049;28;20611;-66
2022/10/12 01:28:44;;;;;;;9.93;5.40;;;4.10;1.00;;;;;;5038863;28;20780;-65
2022/10/12 01:31:22;;;;;;;10.70;5.37;;;4.10;99.90;;;;;;5037993;28;20191;-64
2022/10/12 01:33:57;;;;;;;7.90;4.67;;;3.90;99.90;;;;;;5027149;28;20206;-62
2022/10/12 01:36:41;;;;;;;10.73;5.57;;;3.90;99.90;;;;;;5004364;28;20278;-62
2022/10/12 01:39:23;;;;;;;11.70;5.23;;;4.00;99.90;;;;;;5037783;28;20215;-61
2022/10/12 01:41:55;;;;;;;8.90;4.90;;;4.10;99.90;;;;;;5026983;28;20693;-62
2022/10/12 01:44:24;;;;;;;11.80;4.70;;;4.10;1.00;;;;;;5020010;28;20207;-60
2022/10/12 01:46:55;;;;;;;10.57;4.67;;;4.00;1.00;;;;;;5036533;28;20199;-61
2022/10/12 01:49:26;;;;;;;9.87;4.80;;;4.10;1.00;;;;;;5053409;28;20196;-62
2022/10/12 01:52:27;;;;;;;8.40;4.53;;;4.10;1.00;;;;;;5002136;28;20197;-61
2022/10/12 01:55:23;;;;;;;8.50;4.27;;;4.20;1.00;;;;;;4971198;28;20250;-61
2022/10/12 01:58:15;;;;;;;8.33;4.83;;;4.40;1.00;;;;;;5035407;28;20276;-62
2022/10/12 02:00:54;;;;;;;14.37;7.77;;;4.40;47.00;;;;;;5018258;28;20645;-61
2022/10/12 02:03:31;;;;;;;23.03;13.23;;;4.60;99.90;;;;;;5035950;28;20220;-62
2022/10/12 02:06:10;;;;;;;20.10;12.03;;;4.90;99.90;;;;;;5039393;28;20200;-62
2022/10/12 02:09:17;;;;;;;19.87;10.03;;;5.00;8.50;;;;;;5036039;28;20201;-62
2022/10/12 02:11:47;;;;;;;14.93;6.73;;;5.00;1.00;;;;;;5013288;28;20245;-62
2022/10/12 02:14:24;;;;;;;18.67;10.13;;;4.80;99.90;;;;;;5021359;28;20218;-63
2022/10/12 02:17:01;;;;;;;19.20;9.87;;;4.70;99.90;;;;;;5054479;28;20729;-62
2022/10/12 02:19:31;;;;;;;18.07;9.90;;;4.60;1.00;;;;;;5021804;28;20210;-64
2022/10/12 02:22:03;;;;;;;15.63;9.27;;;4.60;1.00;;;;;;5039935;28;20223;-64
2022/10/12 02:24:34;;;;;;;13.47;7.20;;;4.60;1.00;;;;;;5040119;28;20280;-64
2022/10/12 02:27:02;;;;;;;13.63;7.23;;;4.50;1.00;;;;;;5042162;28;20199;-66
2022/10/12 02:29:37;;;;;;;11.93;6.17;;;4.40;1.00;;;;;;5055837;28;20217;-64
2022/10/12 02:32:49;;;;;;;17.43;6.97;;;4.20;1.00;;;;;;5023422;28;20200;-63
2022/10/12 02:35:42;;;;;;;15.70;8.03;;;4.20;1.00;;;;;;5028834;28;20196;-63
2022/10/12 02:38:17;;;;;;;15.93;8.53;;;4.10;99.90;;;;;;5040266;28;20330;-63
2022/10/12 02:40:51;;;;;;;18.73;10.23;;;4.20;99.90;;;;;;5049750;28;20289;-65
2022/10/12 02:43:28;;;;;;;15.50;8.00;;;4.20;99.90;;;;;;5040159;28;20188;-63
2022/10/12 02:45:58;;;;;;;17.77;10.93;;;4.30;99.90;;;;;;5056802;28;20292;-64
2022/10/12 02:48:27;;;;;;;21.87;11.00;;;4.30;99.90;;;;;;5039446;28;20196;-65
2022/10/12 02:50:56;;;;;;;14.67;9.13;;;4.40;99.90;;;;;;5020228;28;20667;-63
2022/10/12 02:53:25;;;;;;;11.30;6.93;;;4.40;99.90;;;;;;5036839;28;20246;-62
2022/10/12 02:55:58;;;;;;;17.47;6.43;;;4.40;99.90;;;;;;5038705;28;20246;-64
2022/10/12 02:58:25;;;;;;;13.30;6.10;;;4.30;1.00;;;;;;5030403;28;20686;-64
2022/10/12 03:00:52;;;;;;;13.50;6.53;;;4.20;1.00;;;;;;5006226;28;20801;-64
2022/10/12 03:03:19;;;;;;;14.43;6.60;;;4.10;1.00;;;;;;5036765;28;20239;-64
2022/10/12 03:05:46;;;;;;;11.77;6.90;;;4.10;1.00;;;;;;5017191;28;20204;-62
2022/10/12 03:08:13;;;;;;;12.40;6.67;;;4.10;1.00;;;;;;5037448;28;20260;-60
2022/10/12 03:10:40;;;;;;;16.27;7.57;;;4.10;1.00;;;;;;5039143;28;20855;-63
2022/10/12 03:13:07;;;;;;;16.03;9.20;;;4.10;1.00;;;;;;5051651;28;20641;-62
2022/10/12 03:15:34;;;;;;;17.63;9.27;;;4.10;1.00;;;;;;5038673;28;20203;-63
2022/10/12 03:18:01;;;;;;;19.33;9.27;;;4.10;1.00;;;;;;5036424;28;20216;-61
2022/10/12 03:20:28;;;;;;;15.80;8.80;;;4.10;99.90;;;;;;5021601;28;20192;-62
2022/10/12 03:22:55;;;;;;;12.57;8.07;;;4.10;99.90;;;;;;5038363;28;20199;-62
2022/10/12 03:25:23;;;;;;;15.27;7.53;;;4.00;99.90;;;;;;5001330;28;20212;-63
2022/10/12 03:27:50;;;;;;;13.20;6.43;;;4.00;99.90;;;;;;5036796;28;20809;-66
2022/10/12 03:30:17;;;;;;;16.17;6.13;;;3.90;99.90;;;;;;5038986;28;20848;-63
2022/10/12 03:32:44;;;;;;;15.67;6.37;;;3.80;99.90;;;;;;5020607;28;20302;-64
2022/10/12 03:35:11;;;;;;;14.50;8.10;;;3.70;1.00;;;;;;5037720;28;20595;-64
2022/10/12 03:37:38;;;;;;;12.20;6.20;;;3.70;1.00;;;;;;5022156;28;20204;-72
2022/10/12 03:40:06;;;;;;;21.43;8.83;;;3.70;1.00;;;;;;5039668;28;20191;-64
2022/10/12 03:42:33;;;;;;;13.83;6.63;;;3.60;1.00;;;;;;5021859;28;20203;-65
2022/10/12 03:45:00;;;;;;;11.93;7.20;;;3.70;99.90;;;;;;5053874;28;20212;-64
2022/10/12 03:47:27;;;;;;;13.27;6.83;;;3.60;99.90;;;;;;5023856;28;20192;-63
2022/10/12 03:49:54;;;;;;;16.97;8.20;;;3.60;99.90;;;;;;5039890;28;20226;-65
2022/10/12 03:52:21;;;;;;;15.00;9.03;;;3.60;99.90;;;;;;5038115;28;20203;-64
2022/10/12 03:54:48;;;;;;;16.30;7.53;;;3.60;1.00;;;;;;5040987;28;20197;-64
2022/10/12 03:57:15;;;;;;;13.00;7.20;;;3.50;1.00;;;;;;5054284;28;20591;-63
2022/10/12 03:59:42;;;;;;;11.57;7.07;;;3.60;1.00;;;;;;5053508;28;20203;-62
2022/10/12 04:02:09;;;;;;;20.03;8.07;;;3.50;1.00;;;;;;5038016;28;20195;-61
2022/10/12 04:04:42;;;;;;;17.40;8.07;;;3.50;1.00;;;;;;5021876;28;20235;-61
2022/10/12 04:07:09;;;;;;;14.70;8.57;;;3.50;1.00;;;;;;5039126;28;20192;-62
2022/10/12 04:09:36;;;;;;;18.20;8.60;;;3.50;1.00;;;;;;5036761;28;20600;-63
2022/10/12 04:12:03;;;;;;;15.67;8.70;;;3.50;1.00;;;;;;5028707;28;20644;-62
2022/10/12 04:14:30;;;;;;;13.33;7.73;;;3.60;1.00;;;;;;5051398;28;20200;-63
2022/10/12 04:16:57;;;;;;;18.60;7.13;;;3.60;1.00;;;;;;5016370;28;20543;-61
2022/10/12 04:19:24;;;;;;;10.47;7.57;;;3.70;1.00;;;;;;5019534;28;20200;-64
2022/10/12 04:21:51;;;;;;;14.07;7.53;;;3.50;1.00;;;;;;5036456;28;20196;-60
2022/10/12 04:24:18;;;;;;;14.33;7.80;;;3.50;1.00;;;;;;5036137;28;20207;-61
2022/10/12 04:26:45;;;;;;;13.43;7.70;;;3.50;1.00;;;;;;5037166;28;20274;-63
2022/10/12 04:29:13;;;;;;;14.67;7.87;;;3.50;1.00;;;;;;5034421;28;20228;-61
2022/10/12 04:31:40;;;;;;;13.90;8.63;;;3.50;1.00;;;;;;5042004;28;20239;-62
2022/10/12 04:34:10;;;;;;;13.90;7.97;;;3.50;1.00;;;;;;5016910;28;20211;-63
2022/10/12 04:36:38;;;;;;;17.13;8.30;;;3.60;99.90;;;;;;5016655;28;20209;-62
2022/10/12 04:39:05;;;;;;;14.73;8.77;;;3.50;99.90;;;;;;5017915;28;20274;-61
2022/10/12 04:41:32;;;;;;;15.47;8.67;;;3.60;99.90;;;;;;5036998;28;20279;-62
2022/10/12 04:43:59;;;;;;;13.33;7.90;;;3.60;99.90;;;;;;5035027;28;20567;-62
2022/10/12 04:46:26;;;;;;;19.33;10.03;;;3.60;99.90;;;;;;5019800;28;20267;-63
2022/10/12 04:48:53;;;;;;;10.83;8.47;;;3.60;99.90;;;;;;5018900;28;20275;-62
2022/10/12 04:51:20;;;;;;;13.27;8.60;;;3.60;99.90;;;;;;5019745;28;20202;-61
2022/10/12 04:53:47;;;;;;;14.60;8.40;;;3.70;99.90;;;;;;5035374;28;20203;-61
2022/10/12 04:56:14;;;;;;;15.53;9.03;;;3.70;99.90;;;;;;5036504;28;20245;-63
2022/10/12 04:58:40;;;;;;;12.63;8.83;;;3.60;99.90;;;;;;5052116;28;20192;-61
2022/10/12 05:01:08;;;;;;;16.23;8.80;;;3.60;1.00;;;;;;5034794;28;20238;-63
2022/10/12 05:03:35;;;;;;;20.87;9.83;;;3.60;1.00;;;;;;5034539;28;20204;-62
2022/10/12 05:06:07;;;;;;;13.47;8.80;;;3.60;1.00;;;;;;5035673;28;20188;-61
2022/10/12 05:08:34;;;;;;;17.03;10.30;;;3.70;1.00;;;;;;5015765;28;20314;-62
2022/10/12 05:11:01;;;;;;;18.60;9.33;;;3.70;1.00;;;;;;5034007;28;20231;-60
2022/10/12 05:13:28;;;;;;;18.73;8.93;;;3.70;1.00;;;;;;5010512;28;20211;-62
2022/10/12 05:15:56;;;;;;;11.53;8.27;;;3.70;1.00;;;;;;5036142;28;20208;-63
2022/10/12 05:18:23;;;;;;;15.30;9.70;;;3.80;1.00;;;;;;5037075;28;20200;-61
2022/10/12 05:20:50;;;;;;;16.00;9.27;;;3.80;1.00;;;;;;5035117;28;20215;-60
2022/10/12 05:23:22;;;;;;;16.63;9.53;;;3.90;1.00;;;;;;5018809;28;20199;-61
2022/10/12 05:25:49;;;;;;;17.27;9.67;;;3.90;99.90;;;;;;5032902;28;20300;-61
2022/10/12 05:28:16;;;;;;;14.83;9.03;;;4.00;99.90;;;;;;5035197;28;20227;-64
2022/10/12 05:30:43;;;;;;;15.07;8.80;;;4.00;42.20;;;;;;5036116;28;20318;-62
2022/10/12 05:33:10;;;;;;;15.57;7.70;;;4.00;1.00;;;;;;5020000;28;20264;-61
2022/10/12 05:35:37;;;;;;;13.27;8.30;;;3.90;1.00;;;;;;5024480;28;20725;-62
2022/10/12 05:38:07;;;;;;;10.63;7.93;;;3.90;1.00;;;;;;5037976;28;20196;-61
2022/10/12 05:40:34;;;;;;;16.27;8.70;;;3.90;24.40;;;;;;5042413;28;20838;-62
2022/10/12 05:43:01;;;;;;;10.63;7.83;;;3.90;16.50;;;;;;5036595;28;20666;-63
2022/10/12 05:45:28;;;;;;;13.03;8.63;;;3.90;31.70;;;;;;5008440;28;20219;-62
2022/10/12 05:47:55;;;;;;;12.83;7.20;;;3.90;86.70;;;;;;5019641;28;20204;-63
2022/10/12 05:50:22;;;;;;;16.00;8.03;;;4.00;99.90;;;;;;5036457;28;20559;-63
2022/10/12 05:52:49;;;;;;;15.93;8.00;;;4.10;90.50;;;;;;5018877;28;20696;-62
2022/10/12 05:55:16;;;;;;;14.23;7.37;;;4.10;1.00;;;;;;5019344;28;20196;-61
2022/10/12 05:57:43;;;;;;;12.83;8.13;;;4.10;1.00;;;;;;5018568;28;20322;-62
2022/10/12 06:00:17;;;;;;;12.10;8.63;;;4.10;1.00;;;;;;5025472;28;20219;-63
2022/10/12 06:02:43;;;;;;;15.30;7.97;;;4.40;1.00;;;;;;5051394;28;20363;-64
2022/10/12 06:05:11;;;;;;;10.20;6.83;;;4.60;99.90;;;;;;5002401;28;20294;-61
2022/10/12 06:07:38;;;;;;;15.63;7.97;;;4.80;1.00;;;;;;5018826;28;20227;-63
2022/10/12 06:10:05;;;;;;;10.23;6.53;;;5.10;99.90;;;;;;5053751;28;20256;-67
2022/10/12 06:12:32;;;;;;;11.37;6.40;;;5.80;1.00;;;;;;5026273;28;20710;-65
2022/10/12 06:14:59;;;;;;;9.53;5.90;;;6.40;99.90;;;;;;5018263;28;20196;-66
2022/10/12 06:17:26;;;;;;;8.67;5.00;;;6.50;99.90;;;;;;5016488;28;20199;-66
2022/10/12 06:19:53;;;;;;;8.43;5.53;;;6.10;99.90;;;;;;5017113;28;20536;-63
2022/10/12 06:22:20;;;;;;;16.10;7.23;;;6.20;99.90;;;;;;5042802;28;20707;-64
2022/10/12 06:24:47;;;;;;;12.87;6.63;;;7.40;99.90;;;;;;5036163;28;20262;-64
2022/10/12 06:27:16;;;;;;;8.43;5.60;;;9.50;1.00;;;;;;5001640;28;20704;-65
2022/10/12 06:29:43;;;;;;;9.43;5.40;;;10.60;1.00;;;;;;5018763;28;20670;-65
2022/10/12 06:32:10;;;;;;;9.87;5.10;;;9.70;1.00;;;;;;5035479;28;20923;-65
2022/10/12 06:34:36;;;;;;;6.77;4.73;;;8.60;1.00;;;;;;5018723;28;20208;-65
2022/10/12 06:37:03;;;;;;;6.97;4.63;;;7.70;1.00;;;;;;5018985;28;20251;-66
2022/10/12 06:39:30;;;;;;;7.20;4.93;;;7.10;1.00;;;;;;5035542;28;20543;-65
2022/10/12 06:41:57;;;;;;;7.97;4.70;;;6.80;1.00;;;;;;5033943;28;20188;-65
2022/10/12 06:44:27;;;;;;;8.73;4.73;;;6.70;99.90;;;;;;5035783;28;20251;-65
2022/10/12 06:46:54;;;;;;;14.97;5.03;;;6.80;99.90;;;;;;5036091;28;20573;-65
2022/10/12 06:49:21;;;;;;;7.27;4.63;;;6.80;80.80;;;;;;5019621;28;20203;-64
2022/10/12 06:51:48;;;;;;;8.87;4.63;;;6.70;98.10;;;;;;5006269;28;20208;-67
2022/10/12 06:54:15;;;;;;;6.00;4.50;;;6.70;99.90;;;;;;5023599;28;20280;-65
2022/10/12 06:56:43;;;;;;;8.30;4.87;;;6.90;99.90;;;;;;5020784;28;20203;-65
2022/10/12 06:59:13;;;;;;;9.23;5.33;;;7.10;73.80;;;;;;5039360;28;20192;-66
2022/10/12 07:01:40;;;;;;;16.73;8.73;;;7.30;1.00;;;;;;5020404;28;20253;-65
2022/10/12 07:04:07;;;;;;;18.53;9.97;;;7.20;1.00;;;;;;5038239;28;20720;-64
2022/10/12 07:06:34;;;;;;;12.97;8.40;;;7.20;7.60;;;;;;5036976;28;20234;-66
2022/10/12 07:09:01;;;;;;;8.17;5.63;;;7.20;7.00;;;;;;5038645;28;20262;-64
2022/10/12 07:11:28;;;;;;;8.10;5.13;;;7.00;51.00;;;;;;5053646;28;20196;-64
2022/10/12 07:13:56;;;;;;;8.77;5.47;;;6.90;99.90;;;;;;5038280;28;20230;-64
2022/10/12 07:16:23;;;;;;;10.10;5.33;;;6.60;99.90;;;;;;5020316;28;20211;-64
2022/10/12 07:18:50;;;;;;;9.00;5.30;;;6.50;99.90;;;;;;5053872;28;20206;-66
2022/10/12 07:21:17;;;;;;;10.67;5.90;;;6.40;99.90;;;;;;5005461;28;20203;-65
2022/10/12 07:23:44;;;;;;;9.17;5.70;;;6.50;99.90;;;;;;5019598;28;20227;-67
2022/10/12 07:26:12;;;;;;;11.53;5.63;;;6.60;1.00;;;;;;5039459;28;20713;-65
2022/10/12 07:28:39;;;;;;;11.00;5.83;;;6.60;99.90;;;;;;5051046;28;20225;-67
2022/10/12 07:31:08;;;;;;;10.47;6.17;;;6.60;1.00;;;;;;5003243;28;20183;-66
2022/10/12 07:33:37;;;;;;;10.17;6.17;;;6.70;1.00;;;;;;5036361;28;20283;-65
2022/10/12 07:36:05;;;;;;;10.03;6.13;;;6.70;1.00;;;;;;5053438;28;20227;-62
2022/10/12 07:38:46;;;;;;;10.77;5.87;;;6.70;1.00;;;;;;5037470;28;20195;-65
2022/10/12 07:41:13;;;;;;;12.70;6.93;;;6.90;1.00;;;;;;5052011;28;20286;-64
2022/10/12 07:43:41;;;;;;;10.10;6.20;;;7.00;99.90;;;;;;5023471;28;20290;-64
2022/10/12 07:46:08;;;;;;;9.67;5.50;;;7.20;99.90;;;;;;5037697;28;20218;-66
2022/10/12 07:48:36;;;;;;;9.83;5.43;;;7.50;99.90;;;;;;5028776;28;20758;-64
2022/10/12 07:51:04;;;;;;;10.83;5.63;;;7.70;99.90;;;;;;5039479;28;20757;-64
2022/10/12 07:53:33;;;;;;;8.43;4.53;;;7.90;99.90;;;;;;5044741;28;20263;-64
2022/10/12 07:56:02;;;;;;;8.27;5.47;;;8.20;99.90;;;;;;5055483;28;20202;-65
2022/10/12 07:58:29;;;;;;;10.37;4.63;;;8.60;1.00;;;;;;5053669;28;20656;-65
2022/10/12 08:01:03;;;;;;;12.10;4.77;;;8.70;1.00;;;;;;5021219;28;20210;-66
2022/10/12 08:03:30;;;;;;;7.87;4.50;;;9.30;1.00;;;;;;5035768;28;20208;-65
2022/10/12 08:05:56;;;;;;;10.67;4.80;;;9.90;1.00;;;;;;5019270;28;20224;-65
2022/10/12 08:08:23;;;;;;;12.27;5.53;;;9.90;1.00;;;;;;5020488;28;20987;-64
2022/10/12 08:10:50;;;;;;;11.23;5.17;;;10.10;1.00;;;;;;5019300;28;20199;-64
2022/10/12 08:13:17;;;;;;;8.50;4.93;;;10.20;1.00;;;;;;5021459;28;20211;-66
2022/10/12 08:15:50;;;;;;;9.40;4.33;;;9.80;1.00;;;;;;5035518;28;20278;-65
2022/10/12 08:18:17;;;;;;;10.20;4.50;;;9.60;1.00;;;;;;5017210;28;20196;-66
2022/10/12 08:20:44;;;;;;;5.57;4.10;;;9.80;1.00;;;;;;5011288;28;20210;-65
2022/10/12 08:23:11;;;;;;;7.63;3.97;;;10.00;1.00;;;;;;5009155;28;20199;-65
2022/10/12 08:25:38;;;;;;;9.00;4.70;;;10.00;1.00;;;;;;5017566;28;20270;-65
2022/10/12 08:28:05;;;;;;;9.67;4.43;;;10.00;1.00;;;;;;5014615;28;20266;-64
2022/10/12 08:30:32;;;;;;;5.67;4.67;;;9.70;1.00;;;;;;5029311;28;20192;-66
2022/10/12 08:32:59;;;;;;;9.17;4.50;;;10.10;1.00;;;;;;5018894;28;20291;-64
2022/10/12 08:35:26;;;;;;;8.63;4.57;;;10.70;1.00;;;;;;5017007;28;20299;-64
2022/10/12 08:37:53;;;;;;;11.13;4.30;;;10.90;1.00;;;;;;5015480;28;20200;-65
2022/10/12 08:40:31;;;;;;;9.10;4.27;;;11.00;1.00;;;;;;5014252;28;20606;-64
2022/10/12 08:43:18;;;;;;;9.23;4.37;;;11.20;1.00;;;;;;5033735;28;20624;-64
2022/10/12 08:45:57;;;;;;;8.00;4.10;;;11.20;1.00;;;;;;4987329;28;20834;-65
2022/10/12 08:48:45;;;;;;;8.93;3.87;;;14.20;1.00;;;;;;5020073;28;20199;-64
2022/10/12 08:51:16;;;;;;;7.00;4.03;;;17.30;1.00;;;;;;5015813;28;20193;-64
2022/10/12 08:54:06;;;;;;;7.65;3.30;;;20.50;1.00;;;;;;5025230;28;20198;-66
2022/10/12 08:56:34;;;;;;;10.38;3.38;;;22.60;1.00;;;;;;5018577;28;20270;-64
2022/10/12 08:59:02;;;;;;;11.43;3.50;;;20.80;1.00;;;;;;5019317;28;20234;-65
2022/10/12 09:01:36;;;;;;;7.75;3.08;;;23.90;1.00;;;;;;5016603;28;20201;-66
2022/10/12 09:04:27;;;;;;;9.68;3.45;;;26.30;1.00;;;;;;5019907;28;20207;-65
2022/10/12 09:07:05;;;;;;;7.38;3.35;;;26.90;1.00;;;;;;5016315;28;20286;-65
2022/10/12 09:09:44;;;;;;;7.80;3.15;;;24.70;1.00;;;;;;5032936;28;20188;-66
2022/10/12 09:12:33;;;;;;;7.38;3.40;;;25.80;1.00;;;;;;5020546;28;20266;-66
2022/10/12 09:15:04;;;;;;;7.30;3.17;;;24.40;1.00;;;;;;5005400;28;20197;-66
2022/10/12 09:17:39;;;;;;;9.35;2.88;;;26.30;1.00;;;;;;5016394;28;20220;-67
2022/10/12 09:20:21;;;;;;;6.70;3.28;;;29.10;1.00;;;;;;5031320;28;20192;-67
2022/10/12 09:22:50;;;;;;;5.05;3.15;;;28.50;1.00;;;;;;5025591;28;20627;-65
2022/10/12 09:25:22;;;;;;;8.10;2.80;;;31.50;1.00;;;;;;5015130;28;20716;-66
2022/10/12 09:27:49;;;;;;;8.95;3.10;;;32.10;1.00;;;;;;5025114;28;20246;-67
2022/10/12 09:30:18;;;;;;;10.35;3.30;;;33.10;1.00;;;;;;5036860;28;20199;-66
2022/10/12 09:33:00;;;;;;;6.20;2.80;;;29.20;1.00;;;;;;5027325;28;20196;-66
2022/10/12 09:35:28;;;;;;;8.93;2.88;;;29.60;1.00;;;;;;5030259;28;20195;-66
2022/10/12 09:37:54;;;;;;;6.57;3.10;;;28.90;1.00;;;;;;5019082;28;20587;-66
2022/10/12 09:40:27;;;;;;;6.75;3.58;;;31.40;1.00;;;;;;5006894;28;20679;-66
2022/10/12 09:42:56;;;;;;;10.43;3.22;;;33.90;1.00;;;;;;5051618;28;20203;-66
2022/10/12 09:45:24;;;;;;;6.80;3.17;;;29.40;1.00;;;;;;5030319;28;20218;-66
2022/10/12 09:48:10;;;;;;;5.93;3.28;;;27.90;1.00;;;;;;5052942;28;20274;-66
2022/10/12 09:50:50;;;;;;;5.53;2.65;;;29.00;1.00;;;;;;5023700;28;20214;-66
2022/10/12 09:53:34;;;;;;;7.47;2.88;;;29.30;1.00;;;;;;5037868;28;20192;-67
2022/10/12 09:56:21;;;;;;;6.38;3.13;;;30.40;1.00;;;;;;5028109;28;20207;-66
2022/10/12 09:58:56;;;;;;;7.75;3.15;;;30.90;1.00;;;;;;5037556;28;20631;-66
2022/10/12 10:01:25;;;;;;;5.70;2.70;;;28.90;1.00;;;;;;5019857;28;20219;-67
2022/10/12 10:04:22;;;;;;;8.43;3.00;;;30.30;1.00;;;;;;5021755;28;20873;-68
2022/10/12 10:06:49;;;;;;;6.47;2.70;;;27.90;1.00;;;;;;5017141;28;21027;-66
2022/10/12 10:09:33;;;;;;;8.35;3.05;;;24.20;1.00;;;;;;5051902;28;20192;-68
2022/10/12 10:12:24;;;;;;;10.60;3.13;;;24.20;1.00;;;;;;5014399;28;20662;-66
2022/10/12 10:14:53;;;;;;;6.85;3.25;;;27.20;1.00;;;;;;5055897;28;20199;-66
2022/10/12 10:17:28;;;;;;;7.22;2.78;;;27.70;1.00;;;;;;5047582;28;20896;-66
2022/10/12 10:19:57;;;;;;;9.30;2.75;;;28.70;1.00;;;;;;5038695;28;20564;-66
2022/10/12 10:22:24;;;;;;;6.93;2.72;;;29.00;1.00;;;;;;5026518;28;20216;-66
2022/10/12 10:25:01;;;;;;;6.40;2.97;;;27.60;1.00;;;;;;5044497;28;20210;-66
2022/10/12 10:27:36;;;;;;;6.35;3.00;;;26.30;1.00;;;;;;5047337;28;20322;-66
2022/10/12 10:30:20;;;;;;;11.52;2.95;;;26.60;1.00;;;;;;5028936;28;20659;-67
2022/10/12 10:33:14;;;;;;;6.45;2.80;;;23.50;1.00;;;;;;5029294;28;20187;-68
2022/10/12 10:36:03;;;;;;;5.72;3.00;;;22.90;1.00;;;;;;5045711;28;20193;-68
2022/10/12 10:38:47;;;;;;;8.48;2.85;;;21.50;1.00;;;;;;5031362;28;20644;-68
2022/10/12 10:41:19;;;;;;;8.07;2.92;;;21.80;1.00;;;;;;5042875;28;20194;-67
2022/10/12 10:43:47;;;;;;;6.57;2.80;;;22.10;1.00;;;;;;5038982;28;20196;-67
2022/10/12 10:46:21;;;;;;;9.55;2.85;;;20.70;1.00;;;;;;5042883;28;20689;-67
2022/10/12 10:49:09;;;;;;;6.90;2.80;;;21.40;1.00;;;;;;5041044;28;20195;-67
2022/10/12 10:51:45;;;;;;;5.07;2.60;;;22.80;1.00;;;;;;5044624;28;20197;-69
2022/10/12 10:54:22;;;;;;;5.57;2.33;;;22.00;1.00;;;;;;5055913;28;20917;-65
2022/10/12 10:56:55;;;;;;;8.32;2.83;;;25.10;1.00;;;;;;5044337;28;20203;-66
2022/10/12 10:59:38;;;;;;;6.65;2.75;;;26.20;1.00;;;;;;5008799;28;20208;-66
2022/10/12 11:02:24;;;;;;;7.22;2.83;;;28.40;1.00;;;;;;5039426;28;20204;-65
2022/10/12 11:05:00;;;;;;;4.75;2.03;;;27.10;1.00;;;;;;5038619;28;20192;-65
2022/10/12 11:08:03;;;;;;;6.80;2.78;;;28.30;1.00;;;;;;5011419;28;20228;-66
2022/10/12 11:10:42;;;;;;;8.25;2.30;;;28.80;1.00;;;;;;5015256;28;20214;-66
2022/10/12 11:13:52;;;;;;;6.53;2.47;;;24.40;1.00;;;;;;5024947;28;20241;-66
2022/10/12 11:16:41;;;;;;;5.30;2.38;;;25.80;1.00;;;;;;5026181;28;20275;-66
2022/10/12 11:19:31;;;;;;;7.40;2.60;;;27.40;1.00;;;;;;5036117;28;20296;-66
2022/10/12 11:22:14;;;;;;;8.23;3.13;;;25.00;1.00;;;;;;5018572;28;20290;-66
2022/10/12 11:25:14;;;;;;;7.93;2.60;;;23.60;1.00;;;;;;5036732;28;20200;-67
2022/10/12 11:27:41;;;;;;;8.75;2.47;;;24.90;1.00;;;;;;4961148;28;20234;-66
2022/10/12 11:30:17;;;;;;;8.20;2.83;;;26.20;1.00;;;;;;5043120;28;20769;-66
2022/10/12 11:33:20;;;;;;;6.30;2.45;;;23.20;1.00;;;;;;5028001;28;20196;-66
2022/10/12 11:35:47;;;;;;;8.48;2.55;;;23.90;1.00;;;;;;5011829;28;20328;-66
2022/10/12 11:38:27;;;;;;;6.95;2.63;;;24.40;1.00;;;;;;5026689;28;20196;-66
2022/10/12 11:41:07;;;;;;;7.97;2.40;;;24.50;1.00;;;;;;5044705;28;20553;-66
2022/10/12 11:44:00;;;;;;;6.72;2.42;;;21.70;1.00;;;;;;5034378;28;20196;-67
2022/10/12 11:46:39;;;;;;;6.00;2.08;;;21.50;1.00;;;;;;5011952;28;20224;-67
2022/10/12 11:49:27;;;;;;;5.57;2.08;;;23.40;1.00;;;;;;5032587;28;20211;-66
2022/10/12 11:51:59;;;;;;;6.47;2.58;;;25.40;1.00;;;;;;5039982;28;20283;-66
2022/10/12 11:54:31;;;;;;;6.45;2.47;;;22.90;1.00;;;;;;5040499;28;20698;-66
2022/10/12 11:57:05;;;;;;;8.55;2.70;;;24.00;1.00;;;;;;5025612;28;20206;-65
2022/10/12 11:59:41;;;;;;;8.27;2.33;;;23.00;1.00;;;;;;5055429;28;20277;-65
2022/10/12 12:02:17;;;;;;;8.60;2.25;;;23.70;1.00;;;;;;5041013;28;20195;-65
2022/10/12 12:04:47;;;;;;;6.50;2.22;;;25.00;1.00;;;;;;5043470;28;20282;-65
2022/10/12 12:07:37;;;;;;;7.80;2.10;;;24.90;1.00;;;;;;5039991;28;20216;-67
2022/10/12 12:10:36;;;;;;;8.73;2.60;;;24.60;1.00;;;;;;5026735;28;20283;-65
2022/10/12 12:13:17;;;;;;;7.50;2.53;;;23.10;1.00;;;;;;5044518;28;20911;-66
2022/10/12 12:15:46;;;;;;;7.03;2.20;;;23.90;1.00;;;;;;5024790;28;20200;-66
2022/10/12 12:18:14;;;;;;;5.57;2.10;;;23.10;1.00;;;;;;5027972;28;20234;-67
2022/10/12 12:20:41;;;;;;;5.28;2.20;;;21.70;1.00;;;;;;5052362;28;20195;-67
2022/10/12 12:23:34;;;;;;;6.40;2.35;;;21.20;1.00;;;;;;5042539;28;20605;-67
2022/10/12 12:26:10;;;;;;;5.38;2.03;;;20.40;1.00;;;;;;5036469;28;20208;-67
2022/10/12 12:29:11;;;;;;;6.22;2.15;;;20.20;1.00;;;;;;5024247;28;20231;-66
2022/10/12 12:31:38;;;;;;;6.43;2.35;;;19.70;1.00;;;;;;5009998;28;20258;-67
2022/10/12 12:34:12;;;;;;;7.40;2.28;;;19.80;1.00;;;;;;5010643;28;20655;-67
2022/10/12 12:36:43;;;;;;;9.50;2.53;;;20.10;1.00;;;;;;5025515;28;20203;-67
2022/10/12 12:39:33;;;;;;;8.90;2.58;;;19.50;1.00;;;;;;5021286;28;20210;-66
2022/10/12 12:42:03;;;;;;;5.40;2.38;;;19.40;1.00;;;;;;5022803;28;20203;-66
2022/10/12 12:44:33;;;;;;;7.97;2.50;;;19.00;1.00;;;;;;5021819;28;20354;-66
2022/10/12 12:47:00;;;;;;;5.07;2.17;;;19.20;1.00;;;;;;5020786;28;20904;-66
2022/10/12 12:49:36;;;;;;;8.43;2.35;;;19.70;1.00;;;;;;5022022;28;20199;-66
2022/10/12 12:52:23;;;;;;;7.07;2.42;;;19.40;1.00;;;;;;5021609;28;20240;-66
2022/10/12 12:55:15;;;;;;;8.13;2.67;;;18.60;1.00;;;;;;5010962;28;20556;-66
2022/10/12 12:57:57;;;;;;;4.97;2.17;;;18.70;1.00;;;;;;5018238;28;20697;-66
2022/10/12 13:00:45;;;;;;;8.57;2.90;;;18.60;1.00;;;;;;5026259;28;20217;-66
2022/10/12 13:03:31;;;;;;;6.38;2.83;;;18.50;1.00;;;;;;4983261;28;20645;-66
2022/10/12 13:06:16;;;;;;;6.28;2.70;;;18.20;1.00;;;;;;5021162;28;20194;-66
2022/10/12 13:09:10;;;;;;;4.97;2.28;;;17.80;1.00;;;;;;5012097;28;20416;-66
2022/10/12 13:12:16;;;;;;;5.22;2.03;;;17.50;1.00;;;;;;5025708;28;20687;-66
2022/10/12 13:15:10;;;;;;;4.80;2.40;;;18.00;1.00;;;;;;5003432;28;20959;-66
2022/10/12 13:18:22;;;;;;;5.60;2.20;;;18.30;1.00;;;;;;5021369;28;20292;-66
2022/10/12 13:21:15;;;;;;;5.50;2.20;;;18.50;1.00;;;;;;5019830;28;20527;-66
2022/10/12 13:23:46;;;;;;;6.07;2.42;;;18.80;1.00;;;;;;5022286;28;20231;-66
2022/10/12 13:26:20;;;;;;;8.10;2.55;;;19.00;1.00;;;;;;5022554;28;20212;-66
2022/10/12 13:28:52;;;;;;;11.27;2.60;;;18.60;1.00;;;;;;5025202;28;20302;-67